Terminal Aerodrome Forecast
Issued by NWS Bismarck, ND

Home | Current Version | Previous Version | Graphics & Text | Print | Product List | Glossary On
Versions: 1 2 3 4 5 6 7 8 9 10 11 12 13 14 15 16 17 18
000
FTUS43 KBIS 011200 AAA
TAFBIS
TAF AMD
KBIS 011255Z 0113/0212 24010KT P6SM BKN100
     FM011400 27009KT P6SM OVC030
      TEMPO 0114/0118 4SM -SN BKN015
     FM011800 31011KT P6SM BKN040=

USA.gov is the U.S. government's official web portal to all federal, state and local government web resources and services.